createdAt,value
2019-04-22T00:01:57.006Z,79.00
2019-04-22T00:04:41.449Z,79.10
2019-04-22T00:07:22.735Z,79.00
2019-04-22T00:09:58.344Z,79.10
2019-04-22T00:12:27.932Z,79.70
2019-04-22T00:14:54.327Z,80.50
2019-04-22T00:17:30.105Z,79.80
2019-04-22T00:22:27.760Z,81.10
2019-04-22T00:25:02.983Z,80.90
2019-04-22T00:27:37.288Z,81.40
2019-04-22T00:30:07.700Z,81.80
2019-04-22T00:32:50.002Z,82.00
2019-04-22T00:35:19.812Z,82.00
2019-04-22T00:37:59.686Z,81.90
2019-04-22T00:40:30.600Z,82.30
2019-04-22T00:42:53.801Z,82.60
2019-04-22T00:45:31.190Z,82.40
2019-04-22T00:48:01.000Z,82.60
2019-04-22T00:53:04.572Z,83.80
2019-04-22T00:55:31.250Z,83.60
2019-04-22T00:58:13.953Z,84.40
2019-04-22T01:00:39.277Z,84.30
2019-04-22T01:03:10.973Z,84.70
2019-04-22T01:05:43.699Z,84.60
2019-04-22T01:08:15.385Z,85.00
2019-04-22T01:10:45.191Z,85.20
2019-04-22T01:13:16.680Z,86.10
2019-04-22T01:16:04.568Z,85.70
2019-04-22T01:18:15.768Z,86.10
2019-04-22T01:23:19.270Z,87.30
2019-04-22T01:25:46.128Z,87.90
2019-04-22T01:28:15.302Z,88.40
2019-04-22T01:30:40.663Z,88.20
2019-04-22T01:33:12.769Z,88.10
2019-04-22T01:35:53.886Z,88.80
2019-04-22T01:38:26.518Z,88.40
2019-04-22T01:41:07.121Z,88.20
2019-04-22T01:43:46.115Z,88.90
2019-04-22T01:46:08.514Z,89.20
2019-04-22T01:48:39.565Z,89.90
2019-04-22T01:51:01.681Z,90.50
2019-04-22T01:53:47.368Z,90.30
2019-04-22T01:56:13.754Z,90.70
2019-04-22T01:58:33.214Z,90.80
2019-04-22T02:01:13.545Z,90.90
2019-04-22T02:03:52.758Z,90.80
2019-04-22T02:06:17.286Z,91.00
2019-04-22T02:11:30.275Z,91.50
2019-04-22T02:13:49.545Z,91.70
2019-04-22T02:16:21.192Z,92.20
2019-04-22T02:18:52.414Z,91.90
2019-04-22T02:21:23.434Z,92.00
2019-04-22T02:26:25.563Z,92.00
2019-04-22T02:29:15.058Z,92.10
2019-04-22T02:31:40.545Z,92.20
2019-04-22T02:36:35.923Z,92.40
2019-04-22T02:41:30.924Z,93.00
2019-04-22T02:46:54.698Z,93.40
2019-04-22T03:01:41.210Z,94.50
2019-04-22T03:04:20.549Z,94.70
2019-04-22T03:06:38.399Z,94.90
2019-04-22T03:09:18.503Z,94.90
2019-04-22T03:12:02.951Z,95.00
2019-04-22T03:14:22.755Z,95.10
2019-04-22T03:16:54.835Z,95.50
2019-04-22T03:21:57.909Z,95.40
2019-04-22T03:24:27.835Z,95.70
2019-04-22T03:26:59.245Z,95.80
2019-04-22T03:33:05.881Z,96.50
2019-04-22T03:42:56.313Z,97.00
2019-04-22T03:45:28.435Z,97.20
2019-04-22T03:47:54.145Z,97.60
2019-04-22T04:00:42.927Z,99.50
2019-04-22T04:05:49.661Z,99.90
2019-04-22T04:13:03.326Z,99.90
2019-04-22T04:16:03.112Z,99.90
2019-04-22T04:18:03.327Z,99.90
2019-04-22T04:25:42.723Z,99.90
2019-04-22T04:28:31.356Z,99.90
2019-04-22T04:33:21.164Z,99.90
2019-04-22T04:38:11.590Z,99.90
2019-04-22T04:40:39.959Z,99.90
2019-04-22T04:43:18.822Z,99.90
2019-04-22T04:48:20.997Z,99.90
2019-04-22T04:51:01.616Z,99.90
2019-04-22T04:55:53.169Z,99.90
2019-04-22T04:58:36.754Z,99.90
2019-04-22T05:01:00.610Z,99.90
2019-04-22T05:03:32.816Z,99.90
2019-04-22T05:05:58.984Z,99.90
2019-04-22T05:08:40.572Z,99.90
2019-04-22T05:11:16.186Z,99.90
2019-04-22T05:13:33.412Z,99.90
2019-04-22T05:16:17.454Z,99.90
2019-04-22T05:21:09.561Z,99.90
2019-04-22T05:23:40.511Z,99.90
2019-04-22T05:26:04.312Z,99.90
2019-04-22T05:28:33.523Z,99.90
2019-04-22T05:31:05.152Z,99.90
2019-04-22T05:33:35.021Z,99.90
2019-04-22T05:36:07.427Z,99.90
2019-04-22T05:38:42.824Z,99.90
2019-04-22T05:41:14.341Z,99.90
2019-04-22T05:43:42.340Z,99.90
2019-04-22T05:46:09.151Z,99.90
2019-04-22T05:51:09.780Z,99.90
2019-04-22T05:53:42.818Z,99.90
2019-04-22T05:56:22.069Z,99.90
2019-04-22T06:03:56.492Z,99.90
2019-04-22T06:06:18.223Z,99.90
2019-04-22T06:08:51.287Z,99.90
2019-04-22T06:11:25.655Z,99.90
2019-04-22T06:13:50.221Z,99.60
2019-04-22T06:16:29.177Z,99.20
2019-04-22T06:18:58.276Z,99.40
2019-04-22T06:21:31.108Z,99.30
2019-04-22T06:24:06.365Z,99.30
2019-04-22T06:26:37.925Z,99.00
2019-04-22T06:29:01.345Z,99.00
2019-04-22T06:31:54.459Z,98.80
2019-04-22T06:34:06.206Z,98.70
2019-04-22T06:36:37.465Z,99.10
2019-04-22T06:39:10.549Z,98.60
2019-04-22T06:41:33.374Z,98.70
2019-04-22T06:44:16.190Z,98.10
2019-04-22T06:46:39.939Z,98.00
2019-04-22T06:49:11.285Z,97.70
2019-04-22T06:51:40.589Z,97.80
2019-04-22T06:54:14.693Z,97.20
2019-04-22T06:56:42.752Z,97.10
2019-04-22T06:59:16.865Z,96.80
2019-04-22T07:01:52.420Z,96.60
2019-04-22T07:04:11.656Z,96.50
2019-04-22T07:06:48.327Z,95.60
2019-04-22T07:09:31.533Z,96.00
2019-04-22T07:11:50.750Z,95.80
2019-04-22T07:14:18.110Z,94.70
2019-04-22T07:16:54.541Z,93.80
2019-04-22T07:21:57.597Z,93.60
2019-04-22T07:24:40.426Z,92.80
2019-04-22T07:27:01.924Z,92.10
2019-04-22T07:29:29.766Z,92.00
2019-04-22T07:32:01.556Z,91.60
2019-04-22T07:34:33.131Z,91.50
2019-04-22T07:37:09.261Z,91.40
2019-04-22T07:39:37.958Z,90.70
2019-04-22T07:42:10.777Z,92.40
2019-04-22T07:44:38.495Z,91.00
2019-04-22T07:47:15.254Z,90.20
2019-04-22T07:52:12.433Z,90.20
2019-04-22T07:54:43.133Z,89.00
2019-04-22T07:59:43.640Z,86.30
2019-04-22T08:02:16.298Z,84.90
2019-04-22T08:05:05.670Z,85.70
2019-04-22T08:07:18.177Z,86.20
2019-04-22T08:09:51.090Z,85.40
2019-04-22T08:12:20.299Z,82.80
2019-04-22T08:17:45.149Z,79.30
2019-04-22T08:19:57.780Z,78.40
2019-04-22T08:22:24.092Z,76.80
2019-04-22T08:24:57.914Z,75.30
2019-04-22T08:27:25.322Z,76.00
2019-04-22T08:32:38.027Z,74.10
2019-04-22T08:35:04.915Z,72.60
2019-04-22T08:40:09.650Z,72.30
2019-04-22T08:42:48.224Z,74.40
2019-04-22T08:45:12.030Z,74.60
2019-04-22T08:47:36.601Z,73.30
2019-04-22T08:50:10.924Z,73.20
2019-04-22T08:52:41.822Z,72.60
2019-04-22T08:55:12.945Z,72.30
2019-04-22T08:58:03.529Z,70.30
2019-04-22T09:00:13.000Z,71.20
2019-04-22T09:02:51.230Z,70.00
2019-04-22T09:05:33.536Z,68.60
2019-04-22T09:07:46.961Z,67.90
2019-04-22T09:10:19.924Z,66.50
2019-04-22T09:12:56.743Z,64.80
2019-04-22T09:15:24.727Z,65.20
2019-04-22T09:17:55.843Z,65.40
2019-04-22T09:20:21.723Z,63.90
2019-04-22T09:23:00.247Z,64.80
2019-04-22T09:25:24.011Z,62.50
2019-04-22T09:27:56.027Z,61.70
2019-04-22T09:30:30.633Z,60.50
2019-04-22T09:33:06.246Z,60.40
2019-04-22T09:35:31.881Z,61.30
2019-04-22T09:38:13.770Z,59.00
2019-04-22T09:40:34.608Z,58.60
2019-04-22T09:43:02.907Z,58.40
2019-04-22T09:45:34.381Z,58.60
2019-04-22T09:48:09.011Z,55.80
2019-04-22T09:50:43.146Z,56.00
2019-04-22T09:53:08.067Z,54.80
2019-04-22T09:55:34.574Z,54.70
2019-04-22T09:58:09.654Z,56.10
2019-04-22T10:00:52.760Z,56.10
2019-04-22T10:03:20.507Z,55.40
2019-04-22T10:06:02.511Z,55.10
2019-04-22T10:08:31.660Z,54.60
2019-04-22T10:10:56.579Z,54.80
2019-04-22T10:13:25.587Z,54.70
2019-04-22T10:15:57.298Z,54.00
2019-04-22T10:18:28.912Z,53.30
2019-04-22T10:21:00.726Z,53.30
2019-04-22T10:23:34.526Z,53.50
2019-04-22T10:26:00.795Z,52.80
2019-04-22T10:31:01.176Z,52.60
2019-04-22T10:33:26.875Z,50.70
2019-04-22T10:35:39.451Z,49.50
2019-04-22T10:38:10.325Z,48.00
2019-04-22T10:40:40.737Z,49.00
2019-04-22T10:43:11.531Z,48.20
2019-04-22T10:45:41.985Z,48.50
2019-04-22T10:48:12.332Z,47.20
2019-04-22T10:50:46.861Z,47.90
2019-04-22T10:53:17.924Z,46.80
2019-04-22T10:55:49.861Z,46.00
2019-04-22T10:58:20.537Z,47.50
2019-04-22T11:00:52.087Z,46.40
2019-04-22T11:03:22.478Z,43.50
2019-04-22T11:05:53.920Z,43.50
2019-04-22T11:08:32.583Z,44.00
2019-04-22T11:11:12.490Z,43.30
2019-04-22T11:13:26.137Z,43.90
2019-04-22T11:15:55.846Z,45.10
2019-04-22T11:18:25.421Z,44.00
2019-04-22T11:20:55.781Z,41.80
2019-04-22T11:23:27.014Z,41.10
2019-04-22T11:25:57.611Z,41.70
2019-04-22T11:28:27.820Z,42.40
2019-04-22T11:30:58.700Z,42.20
2019-04-22T11:33:28.342Z,41.00
2019-04-22T11:35:57.743Z,40.70
2019-04-22T11:38:28.506Z,39.00
2019-04-22T11:41:00.023Z,40.40
2019-04-22T11:43:30.464Z,39.90
2019-04-22T11:46:00.186Z,39.60
2019-04-22T11:48:31.045Z,40.30
2019-04-22T11:51:02.017Z,40.40
2019-04-22T11:53:31.508Z,41.10
2019-04-22T11:56:00.914Z,38.80
2019-04-22T11:58:30.794Z,39.60
2019-04-22T12:01:01.071Z,38.30
2019-04-22T12:03:31.663Z,38.00
2019-04-22T12:06:02.070Z,37.20
2019-04-22T12:08:31.583Z,38.40
2019-04-22T12:11:05.498Z,37.80
2019-04-22T12:13:33.783Z,38.10
2019-04-22T12:16:03.449Z,36.30
2019-04-22T12:18:33.313Z,37.00
2019-04-22T12:21:03.550Z,36.10
2019-04-22T12:23:34.849Z,36.30
2019-04-22T12:26:09.870Z,35.60
2019-04-22T12:28:36.804Z,35.10
2019-04-22T12:31:06.672Z,33.90
2019-04-22T12:33:37.119Z,32.80
2019-04-22T12:36:08.670Z,31.90
2019-04-22T12:38:39.761Z,30.90
2019-04-22T12:41:11.974Z,30.00
2019-04-22T12:43:41.019Z,29.30
2019-04-22T12:46:12.079Z,28.90
2019-04-22T12:48:41.529Z,28.50
2019-04-22T12:51:11.098Z,27.40
2019-04-22T12:53:42.114Z,27.10
2019-04-22T12:56:12.658Z,27.40
2019-04-22T12:58:43.373Z,26.90
2019-04-22T13:01:13.158Z,27.10
2019-04-22T13:03:42.656Z,26.10
2019-04-22T13:06:12.267Z,26.20
2019-04-22T13:08:41.677Z,25.90
2019-04-22T13:11:14.494Z,25.50
2019-04-22T13:13:42.987Z,25.30
2019-04-22T13:16:13.397Z,25.60
2019-04-22T13:18:50.186Z,25.60
2019-04-22T13:21:15.054Z,25.60
2019-04-22T13:23:44.648Z,26.30
2019-04-22T13:26:15.131Z,26.40
2019-04-22T13:28:45.117Z,26.90
2019-04-22T13:31:16.070Z,26.30
2019-04-22T13:33:46.697Z,26.10
2019-04-22T13:36:19.192Z,25.40
2019-04-22T13:38:49.225Z,26.00
2019-04-22T13:41:28.915Z,26.20
2019-04-22T13:43:51.005Z,25.00
2019-04-22T13:46:21.949Z,25.70
2019-04-22T13:49:17.201Z,26.00
2019-04-22T13:51:52.597Z,25.90
2019-04-22T13:56:46.319Z,26.80
2019-04-22T13:59:07.278Z,26.50
2019-04-22T14:01:38.632Z,27.00
2019-04-22T14:04:12.599Z,26.50
2019-04-22T14:06:42.864Z,26.80
2019-04-22T14:09:13.698Z,26.90
2019-04-22T14:11:50.858Z,25.80
2019-04-22T14:14:15.640Z,26.80
2019-04-22T14:16:45.278Z,26.60
2019-04-22T14:19:16.052Z,26.70
2019-04-22T14:21:47.463Z,26.40
2019-04-22T14:24:17.876Z,27.20
2019-04-22T14:26:58.837Z,26.40
2019-04-22T14:29:19.709Z,26.40
2019-04-22T14:32:01.122Z,26.80
2019-04-22T14:34:20.808Z,26.50
2019-04-22T14:36:51.110Z,27.10
2019-04-22T14:39:21.902Z,28.30
2019-04-22T14:44:12.633Z,28.50
2019-04-22T14:45:15.190Z,30.00
2019-04-22T14:47:21.172Z,30.90
2019-04-22T14:49:50.427Z,32.40
2019-04-22T14:52:24.764Z,34.50
2019-04-22T14:54:44.642Z,35.20
2019-04-22T14:56:59.028Z,36.10
2019-04-22T14:59:29.213Z,35.80
2019-04-22T15:01:58.974Z,35.80
2019-04-22T15:04:29.023Z,36.10
2019-04-22T15:06:59.055Z,36.30
2019-04-22T15:09:30.076Z,35.50
2019-04-22T15:12:14.477Z,34.80
2019-04-22T15:14:31.047Z,34.60
2019-04-22T15:17:02.637Z,35.60
2019-04-22T15:19:38.020Z,34.50
2019-04-22T15:22:08.490Z,33.80
2019-04-22T15:24:38.765Z,33.10
2019-04-22T15:27:08.807Z,33.70
2019-04-22T15:29:39.073Z,33.30
2019-04-22T15:32:09.383Z,33.10
2019-04-22T15:34:39.513Z,32.00
2019-04-22T15:37:09.209Z,33.30
2019-04-22T15:39:39.541Z,33.20
2019-04-22T15:42:14.584Z,33.10
2019-04-22T15:44:40.262Z,33.70
2019-04-22T15:47:11.014Z,33.40
2019-04-22T15:49:42.146Z,33.10
2019-04-22T15:52:12.561Z,34.00
2019-04-22T15:54:43.599Z,33.10
2019-04-22T15:57:14.800Z,33.40
2019-04-22T15:59:57.488Z,32.80
2019-04-22T16:02:16.034Z,32.80
2019-04-22T16:04:46.544Z,32.50
2019-04-22T16:07:17.102Z,32.40
2019-04-22T16:09:47.858Z,33.50
2019-04-22T16:12:26.162Z,33.70
2019-04-22T16:14:53.491Z,34.50
2019-04-22T16:17:19.770Z,35.00
2019-04-22T16:19:49.236Z,36.00
2019-04-22T16:22:21.809Z,36.40
2019-04-22T16:24:56.248Z,37.50
2019-04-22T16:27:27.455Z,36.60
2019-04-22T16:29:57.234Z,37.20
2019-04-22T16:32:27.793Z,36.90
2019-04-22T16:34:58.725Z,37.10
2019-04-22T16:37:28.597Z,37.30
2019-04-22T16:39:58.923Z,37.70
2019-04-22T16:42:37.897Z,38.60
2019-04-22T16:44:59.755Z,39.70
2019-04-22T16:47:29.244Z,40.40
2019-04-22T16:49:59.617Z,40.70
2019-04-22T16:52:30.296Z,41.10
2019-04-22T16:55:00.985Z,42.10
2019-04-22T16:57:30.619Z,42.50
2019-04-22T17:00:00.450Z,42.70
2019-04-22T17:02:43.402Z,43.40
2019-04-22T17:05:15.936Z,43.70
2019-04-22T17:07:45.736Z,44.20
2019-04-22T17:10:15.613Z,44.80
2019-04-22T17:12:53.916Z,45.00
2019-04-22T17:15:18.496Z,46.20
2019-04-22T17:17:49.370Z,46.00
2019-04-22T17:20:18.878Z,46.40
2019-04-22T17:22:49.404Z,46.50
2019-04-22T17:25:20.370Z,46.60
2019-04-22T17:27:49.954Z,47.10
2019-04-22T17:30:20.181Z,46.60
2019-04-22T17:32:50.399Z,46.90
2019-04-22T17:35:20.055Z,47.10
2019-04-22T17:38:00.301Z,47.60
2019-04-22T17:40:42.208Z,47.80
2019-04-22T17:43:40.529Z,47.90
2019-04-22T17:46:04.479Z,48.00
2019-04-22T17:48:53.364Z,48.10
2019-04-22T17:51:34.402Z,48.40
2019-04-22T17:54:02.409Z,48.70
2019-04-22T17:56:33.713Z,49.00
2019-04-22T17:59:04.020Z,49.20
2019-04-22T18:01:29.675Z,49.90
2019-04-22T18:03:49.814Z,49.40
2019-04-22T18:06:42.873Z,49.60
2019-04-22T18:09:01.508Z,49.90
2019-04-22T18:14:26.077Z,50.50
2019-04-22T18:16:43.006Z,50.40
2019-04-22T18:19:11.856Z,51.40
2019-04-22T18:21:35.030Z,51.30
2019-04-22T18:24:04.660Z,51.80
2019-04-22T18:26:44.954Z,52.10
2019-04-22T18:29:20.992Z,51.80
2019-04-22T18:31:40.977Z,51.40
2019-04-22T18:34:10.156Z,52.00
2019-04-22T18:36:45.813Z,52.60
2019-04-22T18:39:31.158Z,52.30
2019-04-22T18:41:51.974Z,52.90
2019-04-22T18:44:29.061Z,53.30
2019-04-22T18:46:52.305Z,53.90
2019-04-22T18:49:30.775Z,54.00
2019-04-22T18:52:05.855Z,55.20
2019-04-22T18:54:36.779Z,55.70
2019-04-22T18:57:10.050Z,55.30
2019-04-22T18:59:27.817Z,56.00
2019-04-22T19:01:58.627Z,57.50
2019-04-22T19:04:31.726Z,57.20
2019-04-22T19:07:23.986Z,57.60
2019-04-22T19:09:59.446Z,57.30
2019-04-22T19:20:05.390Z,57.80
2019-04-22T19:22:29.885Z,58.70
2019-04-22T19:24:54.971Z,59.60
2019-04-22T19:27:39.534Z,59.90
2019-04-22T19:30:18.990Z,59.70
2019-04-22T19:32:46.480Z,60.50
2019-04-22T19:35:11.692Z,59.90
2019-04-22T19:37:42.479Z,60.40
2019-04-22T19:40:24.316Z,60.00
2019-04-22T19:42:52.642Z,60.80
2019-04-22T19:45:16.027Z,61.40
2019-04-22T19:47:56.575Z,61.30
2019-04-22T19:50:24.593Z,60.80
2019-04-22T19:52:59.491Z,61.20
2019-04-22T19:55:29.446Z,60.90
2019-04-22T19:57:54.610Z,61.60
2019-04-22T20:00:37.381Z,62.90
2019-04-22T20:03:29.398Z,62.00
2019-04-22T20:05:52.563Z,62.30
2019-04-22T20:08:26.377Z,61.90
2019-04-22T20:10:59.173Z,62.40
2019-04-22T20:13:33.559Z,61.60
2019-04-22T20:15:50.817Z,62.40
2019-04-22T20:18:35.653Z,62.40
2019-04-22T20:21:08.654Z,63.60
2019-04-22T20:23:25.672Z,62.90
2019-04-22T20:25:56.087Z,62.80
2019-04-22T20:28:37.813Z,63.50
2019-04-22T20:31:08.467Z,62.80
2019-04-22T20:33:45.569Z,63.60
2019-04-22T20:36:12.592Z,63.60
2019-04-22T20:38:42.490Z,63.80
2019-04-22T20:41:08.351Z,62.80
2019-04-22T20:43:50.004Z,63.30
2019-04-22T20:46:15.127Z,63.00
2019-04-22T20:48:50.207Z,62.50
2019-04-22T20:51:28.123Z,62.30
2019-04-22T20:53:49.087Z,62.20
2019-04-22T20:56:18.882Z,62.50
2019-04-22T20:58:51.732Z,63.00
2019-04-22T21:01:21.092Z,62.70
2019-04-22T21:03:43.987Z,62.90
2019-04-22T21:06:22.869Z,63.50
2019-04-22T21:09:01.167Z,64.00
2019-04-22T21:11:29.673Z,63.10
2019-04-22T21:14:01.367Z,63.40
2019-04-22T21:16:32.840Z,63.30
2019-04-22T21:19:03.815Z,63.70
2019-04-22T21:21:38.634Z,63.60
2019-04-22T21:24:00.752Z,64.10
2019-04-22T21:26:33.635Z,64.50
2019-04-22T21:29:09.878Z,64.40
2019-04-22T21:31:43.772Z,64.60
2019-04-22T21:34:10.031Z,65.00
2019-04-22T21:36:47.875Z,64.50
2019-04-22T21:39:15.696Z,65.00
2019-04-22T21:41:49.968Z,65.10
2019-04-22T21:44:14.074Z,65.40
2019-04-22T21:46:51.009Z,64.70
2019-04-22T21:49:21.680Z,65.50
2019-04-22T21:51:53.775Z,65.40
2019-04-22T21:54:26.680Z,65.60
2019-04-22T21:57:07.480Z,65.70
2019-04-22T21:59:27.063Z,65.00
2019-04-22T22:02:04.381Z,65.90
2019-04-22T22:04:30.344Z,65.60
2019-04-22T22:06:53.111Z,65.20
2019-04-22T22:09:34.630Z,66.30
2019-04-22T22:12:02.441Z,65.80
2019-04-22T22:14:35.853Z,66.20
2019-04-22T22:17:02.275Z,66.90
2019-04-22T22:19:39.440Z,66.80
2019-04-22T22:22:25.444Z,66.70
2019-04-22T22:24:43.892Z,67.60
2019-04-22T22:27:14.370Z,66.90
2019-04-22T22:30:05.653Z,69.00
2019-04-22T22:32:22.029Z,68.30
2019-04-22T22:34:45.901Z,68.60
2019-04-22T22:37:08.521Z,67.30
2019-04-22T22:39:39.251Z,67.60
2019-04-22T22:41:59.637Z,67.60
2019-04-22T22:44:36.017Z,67.70
2019-04-22T22:47:20.868Z,67.20
2019-04-22T22:49:53.583Z,67.70
2019-04-22T22:52:45.044Z,68.00
2019-04-22T22:54:57.595Z,68.60
2019-04-22T22:57:35.173Z,68.90
2019-04-22T22:59:57.774Z,68.60
2019-04-22T23:02:34.860Z,69.60
2019-04-22T23:05:05.862Z,70.00
2019-04-22T23:07:37.426Z,70.20
2019-04-22T23:10:02.007Z,70.10
2019-04-22T23:12:44.048Z,69.80
2019-04-22T23:15:04.701Z,70.10
2019-04-22T23:17:22.568Z,70.10
2019-04-22T23:19:51.839Z,70.80
2019-04-22T23:22:28.376Z,71.40
2019-04-22T23:25:20.594Z,72.10
2019-04-22T23:27:49.164Z,70.60
2019-04-22T23:30:19.742Z,70.30
2019-04-22T23:33:01.942Z,71.00
2019-04-22T23:35:36.737Z,70.70
2019-04-22T23:38:13.698Z,70.40
2019-04-22T23:40:42.789Z,70.80
2019-04-22T23:43:23.687Z,70.80
2019-04-22T23:46:02.309Z,71.60
2019-04-22T23:48:29.032Z,71.50
2019-04-22T23:51:08.672Z,72.30
2019-04-22T23:53:58.216Z,71.20
2019-04-22T23:56:07.920Z,71.50
